Time;durP1;ratioP1;P1;durP2;ratioP2;P2;SDS_P1;SDS_P2;PMS_P1;PMS_P2;Temp;Humidity;BMP_temperature;BMP_pressure;BME280_temperature;BME280_humidity;BME280_pressure;Samples;Min_cycle;Max_cycle;Signal;HPM_P1;HPM_P2
2022/06/30 00:00:09;;;;;;;;;;;14.70;99.90;;;;;;4976077;28;19914;-78
2022/06/30 00:02:35;;;;;;;;;;;14.60;99.90;;;;;;4958689;28;19922;-78
2022/06/30 00:05:00;;;;;;;;;;;14.70;99.90;;;;;;4975997;28;19937;-78
2022/06/30 00:07:26;;;;;;;;;;;14.80;99.90;;;;;;4975826;28;19964;-79
2022/06/30 00:09:51;;;;;;;;;;;14.70;99.90;;;;;;4975826;28;20014;-79
2022/06/30 00:12:17;;;;;;;;;;;14.70;99.90;;;;;;4975809;28;19910;-77
2022/06/30 00:14:42;;;;;;;;;;;14.60;99.90;;;;;;4975811;28;19910;-79
2022/06/30 00:17:08;;;;;;;;;;;14.60;99.90;;;;;;4975712;28;20260;-79
2022/06/30 00:19:34;;;;;;;;;;;14.50;99.90;;;;;;4975948;28;19910;-78
2022/06/30 00:22:00;;;;;;;;;;;14.40;99.90;;;;;;4975798;28;19910;-78
2022/06/30 00:24:25;;;;;;;;;;;14.30;99.90;;;;;;4975423;28;20371;-78
2022/06/30 00:26:51;;;;;;;;;;;14.20;99.90;;;;;;4975724;28;20462;-78
2022/06/30 00:29:16;;;;;;;;;;;14.30;99.90;;;;;;4975552;28;19918;-79
2022/06/30 00:31:42;;;;;;;;;;;14.40;99.90;;;;;;4975395;28;20429;-77
2022/06/30 00:34:08;;;;;;;;;;;14.40;99.90;;;;;;4975401;28;20422;-78
2022/06/30 00:36:33;;;;;;;;;;;14.20;99.90;;;;;;4975385;28;19914;-78
2022/06/30 00:38:59;;;;;;;;;;;14.40;99.90;;;;;;4975394;28;19914;-79
2022/06/30 00:41:24;;;;;;;;;;;14.40;99.90;;;;;;4975299;28;19914;-79
2022/06/30 00:43:51;;;;;;;;;;;14.30;99.90;;;;;;4957868;28;20268;-79
2022/06/30 00:46:17;;;;;;;;;;;14.40;99.90;;;;;;4957949;28;20330;-79
2022/06/30 00:48:42;;;;;;;;;;;14.60;99.90;;;;;;4975079;28;19918;-78
2022/06/30 00:51:08;;;;;;;;;;;14.70;99.90;;;;;;4974943;28;20057;-77
2022/06/30 00:53:38;;;;;;;;;;;14.60;99.90;;;;;;4975125;28;19917;-78
2022/06/30 00:56:04;;;;;;;;;;;14.60;99.90;;;;;;4975124;28;19910;-79
2022/06/30 00:58:31;;;;;;;;;;;14.50;99.90;;;;;;4975113;28;19926;-77
2022/06/30 01:00:58;;;;;;;;;;;14.30;99.90;;;;;;4975086;28;19910;-78
2022/06/30 01:03:24;;;;;;;;;;;14.40;99.90;;;;;;4975341;28;20024;-78
2022/06/30 01:05:50;;;;;;;;;;;14.40;99.90;;;;;;4975000;28;19918;-77
2022/06/30 01:08:16;;;;;;;;;;;14.10;99.90;;;;;;4974868;28;19977;-79
2022/06/30 01:13:27;;;;;;;;;;;14.20;99.90;;;;;;4974826;28;19917;-78
2022/06/30 01:15:52;;;;;;;;;;;14.30;99.90;;;;;;4974894;28;20008;-77
2022/06/30 01:18:18;;;;;;;;;;;14.40;99.90;;;;;;4974758;28;19945;-78
2022/06/30 01:20:44;;;;;;;;;;;14.40;99.90;;;;;;4974842;28;19918;-78
2022/06/30 01:23:09;;;;;;;;;;;14.30;99.90;;;;;;4974810;28;20024;-78
2022/06/30 01:25:35;;;;;;;;;;;14.40;99.90;;;;;;4974856;28;19921;-78
2022/06/30 01:28:01;;;;;;;;;;;14.50;99.90;;;;;;4974770;28;19937;-79
2022/06/30 01:30:27;;;;;;;;;;;14.40;99.90;;;;;;4974757;28;19933;-78
2022/06/30 01:32:52;;;;;;;;;;;14.50;99.90;;;;;;4974738;28;19965;-79
2022/06/30 01:35:18;;;;;;;;;;;14.20;99.90;;;;;;4974858;28;20066;-78
2022/06/30 01:37:54;;;;;;;;;;;14.20;99.90;;;;;;4978777;28;20298;-78
2022/06/30 01:40:21;;;;;;;;;;;14.20;99.90;;;;;;4978588;28;20290;-79
2022/06/30 01:42:46;;;;;;;;;;;14.10;99.90;;;;;;4978593;28;19910;-79
2022/06/30 01:45:12;;;;;;;;;;;14.20;99.90;;;;;;4978793;28;20397;-77
2022/06/30 01:47:38;;;;;;;;;;;14.10;99.90;;;;;;4978470;28;20464;-78
2022/06/30 01:50:08;;;;;;;;;;;14.10;99.90;;;;;;4978397;28;19929;-77
2022/06/30 01:52:34;;;;;;;;;;;14.00;99.90;;;;;;4978655;28;20302;-79
2022/06/30 01:54:59;;;;;;;;;;;13.80;99.90;;;;;;4960909;28;19910;-78
2022/06/30 01:57:25;;;;;;;;;;;14.00;99.90;;;;;;4978341;28;19910;-78
2022/06/30 01:59:50;;;;;;;;;;;14.10;99.90;;;;;;4978241;28;19962;-78
2022/06/30 02:02:16;;;;;;;;;;;14.20;99.90;;;;;;4978275;28;20387;-79
2022/06/30 02:04:47;;;;;;;;;;;14.10;99.90;;;;;;4978497;28;19918;-78
2022/06/30 02:07:13;;;;;;;;;;;14.10;99.90;;;;;;4978176;28;19914;-78
2022/06/30 02:09:39;;;;;;;;;;;14.10;99.90;;;;;;4960708;28;19913;-77
2022/06/30 02:14:49;;;;;;;;;;;13.90;99.90;;;;;;4977899;28;19977;-79
2022/06/30 02:17:15;;;;;;;;;;;13.70;99.90;;;;;;4978123;28;19910;-78
2022/06/30 02:19:40;;;;;;;;;;;13.60;99.90;;;;;;4977905;28;19964;-79
2022/06/30 02:22:06;;;;;;;;;;;13.70;99.90;;;;;;4978023;28;19917;-77
2022/06/30 02:24:32;;;;;;;;;;;13.50;99.90;;;;;;4978086;28;19910;-78
2022/06/30 02:26:58;;;;;;;;;;;13.50;99.90;;;;;;4977493;28;19945;-78
2022/06/30 02:29:23;;;;;;;;;;;13.60;99.90;;;;;;4977738;28;19910;-77
2022/06/30 02:31:49;;;;;;;;;;;13.70;99.90;;;;;;4977658;28;19921;-78
2022/06/30 02:34:14;;;;;;;;;;;13.60;99.90;;;;;;4977626;28;19960;-78
2022/06/30 02:36:40;;;;;;;;;;;13.40;99.90;;;;;;4977752;28;20359;-78
2022/06/30 02:39:05;;;;;;;;;;;13.40;99.90;;;;;;4977759;28;19997;-78
2022/06/30 02:41:31;;;;;;;;;;;13.40;99.90;;;;;;4977627;28;19910;-77
2022/06/30 02:43:58;;;;;;;;;;;13.40;99.90;;;;;;4977488;28;20410;-77
2022/06/30 02:46:24;;;;;;;;;;;13.20;99.90;;;;;;4977483;28;19916;-78
2022/06/30 02:48:49;;;;;;;;;;;13.20;99.90;;;;;;4977339;28;19914;-79
2022/06/30 02:51:15;;;;;;;;;;;13.30;99.90;;;;;;4977292;28;19972;-78
2022/06/30 02:53:40;;;;;;;;;;;13.50;99.90;;;;;;4977295;28;19911;-79
2022/06/30 02:56:06;;;;;;;;;;;13.50;99.90;;;;;;4977273;28;19910;-78
2022/06/30 02:58:31;;;;;;;;;;;13.60;99.90;;;;;;4977243;28;19910;-79
2022/06/30 03:00:57;;;;;;;;;;;13.60;99.90;;;;;;4977346;28;20422;-79
2022/06/30 03:03:24;;;;;;;;;;;13.30;99.90;;;;;;4977127;28;19918;-79
2022/06/30 03:05:49;;;;;;;;;;;13.00;99.90;;;;;;4977507;28;19957;-78
2022/06/30 03:08:15;;;;;;;;;;;12.80;99.90;;;;;;4977152;28;19961;-78
2022/06/30 03:10:40;;;;;;;;;;;13.00;99.90;;;;;;4977011;28;20379;-77
2022/06/30 03:13:06;;;;;;;;;;;13.30;99.90;;;;;;4977238;28;20370;-77
2022/06/30 03:15:31;;;;;;;;;;;13.50;99.90;;;;;;4976880;28;19917;-79
2022/06/30 03:17:57;;;;;;;;;;;13.30;99.90;;;;;;4976850;28;19957;-78
2022/06/30 03:20:23;;;;;;;;;;;13.40;99.90;;;;;;4976830;28;19941;-78
2022/06/30 03:22:49;;;;;;;;;;;13.30;99.90;;;;;;4977106;28;19921;-79
2022/06/30 03:25:14;;;;;;;;;;;13.50;99.90;;;;;;4976753;28;19981;-78
2022/06/30 03:27:40;;;;;;;;;;;13.60;99.90;;;;;;4976700;28;19914;-79
2022/06/30 03:30:06;;;;;;;;;;;13.50;99.90;;;;;;4976646;28;19910;-77
2022/06/30 03:32:31;;;;;;;;;;;13.50;99.90;;;;;;4976689;28;19910;-78
2022/06/30 03:34:57;;;;;;;;;;;13.50;99.90;;;;;;4976533;28;19949;-77
2022/06/30 03:37:22;;;;;;;;;;;13.20;99.90;;;;;;4976491;28;19917;-79
2022/06/30 03:39:48;;;;;;;;;;;13.10;99.90;;;;;;4976458;28;19910;-79
2022/06/30 03:42:14;;;;;;;;;;;12.90;99.90;;;;;;4976410;28;19910;-79
2022/06/30 03:44:39;;;;;;;;;;;12.80;99.90;;;;;;4976366;28;19910;-77
2022/06/30 03:47:05;;;;;;;;;;;12.90;99.90;;;;;;4976220;28;19918;-78
2022/06/30 03:49:31;;;;;;;;;;;13.10;99.90;;;;;;4976278;28;19910;-78
2022/06/30 03:51:57;;;;;;;;;;;13.30;99.90;;;;;;4975826;28;19962;-78
2022/06/30 03:54:23;;;;;;;;;;;13.40;99.90;;;;;;4976323;28;19933;-79
2022/06/30 03:56:48;;;;;;;;;;;13.20;99.90;;;;;;4976150;28;19957;-78
2022/06/30 03:59:14;;;;;;;;;;;13.30;99.90;;;;;;4975637;28;20294;-78
2022/06/30 04:01:40;;;;;;;;;;;13.40;99.90;;;;;;4976016;28;19910;-77
2022/06/30 04:04:05;;;;;;;;;;;13.40;99.90;;;;;;4976214;28;19964;-78
2022/06/30 04:06:31;;;;;;;;;;;13.50;99.90;;;;;;4975912;28;19945;-78
2022/06/30 04:08:57;;;;;;;;;;;13.40;99.90;;;;;;4976015;28;19917;-77
2022/06/30 04:11:22;;;;;;;;;;;13.40;99.90;;;;;;4975917;28;20289;-78
2022/06/30 04:13:48;;;;;;;;;;;13.30;99.90;;;;;;4976298;28;20346;-78
2022/06/30 04:16:13;;;;;;;;;;;13.10;99.90;;;;;;4975742;28;19911;-78
2022/06/30 04:18:39;;;;;;;;;;;12.90;99.90;;;;;;4975992;28;19914;-78
2022/06/30 04:21:05;;;;;;;;;;;12.70;99.90;;;;;;4975827;28;19910;-78
2022/06/30 04:23:30;;;;;;;;;;;12.60;99.90;;;;;;4975539;28;19910;-78
2022/06/30 04:25:56;;;;;;;;;;;12.60;99.90;;;;;;4975604;28;19910;-79
2022/06/30 04:28:21;;;;;;;;;;;12.60;99.90;;;;;;4975525;28;20013;-78
2022/06/30 04:33:31;;;;;;;;;;;13.00;99.90;;;;;;4975285;28;20366;-79
2022/06/30 04:35:57;;;;;;;;;;;13.20;99.90;;;;;;4975805;28;19910;-78
2022/06/30 04:38:22;;;;;;;;;;;13.30;99.90;;;;;;4975291;28;19909;-78
2022/06/30 04:43:32;;;;;;;;;;;13.30;99.90;;;;;;4975294;28;20342;-78
2022/06/30 04:45:57;;;;;;;;;;;13.20;99.90;;;;;;4975447;28;19910;-77
2022/06/30 04:48:23;;;;;;;;;;;13.40;99.90;;;;;;4975220;28;19914;-79
2022/06/30 04:50:49;;;;;;;;;;;13.50;99.90;;;;;;4975024;28;19946;-77
2022/06/30 04:53:14;;;;;;;;;;;13.60;99.90;;;;;;4975106;28;19945;-77
2022/06/30 04:55:40;;;;;;;;;;;13.80;99.90;;;;;;4957725;28;19960;-78
2022/06/30 04:58:05;;;;;;;;;;;13.80;99.90;;;;;;4975230;28;20398;-78
2022/06/30 05:00:31;;;;;;;;;;;13.90;99.90;;;;;;4975302;28;19917;-78
2022/06/30 05:02:57;;;;;;;;;;;13.80;99.90;;;;;;4975029;28;19916;-79
2022/06/30 05:05:23;;;;;;;;;;;13.90;99.90;;;;;;4974969;28;19910;-78
2022/06/30 05:07:49;;;;;;;;;;;13.90;99.90;;;;;;4975083;28;20374;-77
2022/06/30 05:10:14;;;;;;;;;;;13.90;99.90;;;;;;4974261;28;19910;-77
2022/06/30 05:12:40;;;;;;;;;;;14.00;99.90;;;;;;4974955;28;19910;-78
2022/06/30 05:15:06;;;;;;;;;;;14.20;99.90;;;;;;4957501;28;19910;-77
2022/06/30 05:17:34;;;;;;;;;;;14.10;99.90;;;;;;4974734;28;19950;-79
2022/06/30 05:20:00;;;;;;;;;;;13.90;99.90;;;;;;4975147;28;19910;-77
2022/06/30 05:22:26;;;;;;;;;;;13.80;99.90;;;;;;4974779;28;19910;-77
2022/06/30 05:27:36;;;;;;;;;;;13.80;99.90;;;;;;4974469;28;19988;-78
2022/06/30 05:30:02;;;;;;;;;;;14.10;99.90;;;;;;4974841;28;20383;-78
2022/06/30 05:32:28;;;;;;;;;;;14.50;99.90;;;;;;4974779;28;20449;-78
2022/06/30 05:34:54;;;;;;;;;;;14.70;99.90;;;;;;4975064;28;19910;-78
2022/06/30 05:37:19;;;;;;;;;;;14.60;99.90;;;;;;4974800;28;20401;-78
2022/06/30 05:39:45;;;;;;;;;;;14.70;99.90;;;;;;4974723;28;19911;-78
2022/06/30 05:42:10;;;;;;;;;;;14.90;99.90;;;;;;4957357;28;20286;-78
2022/06/30 05:44:36;;;;;;;;;;;15.10;99.90;;;;;;4974940;28;19914;-79
2022/06/30 05:47:02;;;;;;;;;;;15.20;99.90;;;;;;4974629;28;20071;-78
2022/06/30 05:49:27;;;;;;;;;;;15.20;99.90;;;;;;4974621;28;19911;-78
2022/06/30 05:51:53;;;;;;;;;;;15.40;99.90;;;;;;4974186;28;20383;-79
2022/06/30 05:54:18;;;;;;;;;;;15.30;99.90;;;;;;4974653;28;19961;-78
2022/06/30 05:56:44;;;;;;;;;;;15.00;99.90;;;;;;4974594;28;20394;-78
2022/06/30 05:59:10;;;;;;;;;;;14.90;99.90;;;;;;4974475;28;19941;-79
2022/06/30 06:01:36;;;;;;;;;;;14.90;99.90;;;;;;4974436;28;19914;-78
2022/06/30 06:04:02;;;;;;;;;;;15.00;99.90;;;;;;4974492;28;19917;-79
2022/06/30 06:06:28;;;;;;;;;;;15.20;99.90;;;;;;4974543;28;19910;-78
2022/06/30 06:08:53;;;;;;;;;;;15.30;99.90;;;;;;4974401;28;20049;-79
2022/06/30 06:11:19;;;;;;;;;;;15.50;99.90;;;;;;4974389;28;19945;-79
2022/06/30 06:13:44;;;;;;;;;;;15.90;99.90;;;;;;4974372;28;19910;-77
2022/06/30 06:16:10;;;;;;;;;;;16.00;99.90;;;;;;4974407;28;20363;-78
2022/06/30 06:18:35;;;;;;;;;;;16.30;99.90;;;;;;4974355;28;19918;-78
2022/06/30 06:21:01;;;;;;;;;;;16.60;99.90;;;;;;4974347;28;19946;-78
2022/06/30 06:23:27;;;;;;;;;;;16.70;99.90;;;;;;4977513;28;19910;-79
2022/06/30 06:25:52;;;;;;;;;;;16.70;99.90;;;;;;4977820;28;19910;-79
2022/06/30 06:31:02;;;;;;;;;;;16.70;99.90;;;;;;4977540;28;19961;-78
2022/06/30 06:33:27;;;;;;;;;;;16.80;99.90;;;;;;4977666;28;19911;-79
2022/06/30 06:35:53;;;;;;;;;;;17.00;99.90;;;;;;4978185;28;19945;-79
2022/06/30 06:38:18;;;;;;;;;;;17.30;99.90;;;;;;4977559;28;19910;-78
2022/06/30 06:40:44;;;;;;;;;;;17.10;99.90;;;;;;4977561;28;20004;-79
2022/06/30 06:43:09;;;;;;;;;;;16.80;99.90;;;;;;4977830;28;19910;-80
2022/06/30 06:45:35;;;;;;;;;;;17.00;99.90;;;;;;4977429;28;19914;-78
2022/06/30 06:48:01;;;;;;;;;;;17.10;99.90;;;;;;4977322;28;20009;-78
2022/06/30 06:50:26;;;;;;;;;;;16.90;99.90;;;;;;4977171;28;20247;-78
2022/06/30 06:52:52;;;;;;;;;;;16.70;99.90;;;;;;4977340;28;20008;-79
2022/06/30 06:55:19;;;;;;;;;;;16.70;99.90;;;;;;4977145;28;19918;-79
2022/06/30 06:57:44;;;;;;;;;;;16.70;99.90;;;;;;4977281;28;19910;-78
2022/06/30 07:00:14;;;;;;;;;;;16.80;99.90;;;;;;4977190;28;20295;-79
2022/06/30 07:02:40;;;;;;;;;;;16.40;99.90;;;;;;4977138;28;19914;-78
2022/06/30 07:05:06;;;;;;;;;;;16.60;99.90;;;;;;4977116;28;19918;-79
2022/06/30 07:07:35;;;;;;;;;;;16.80;99.90;;;;;;4976213;28;20209;-78
2022/06/30 07:10:00;;;;;;;;;;;17.00;99.90;;;;;;4976867;28;19941;-78
2022/06/30 07:12:26;;;;;;;;;;;17.00;99.90;;;;;;4977350;28;19910;-79
2022/06/30 07:14:51;;;;;;;;;;;17.00;99.90;;;;;;4977232;28;19952;-78
2022/06/30 07:17:17;;;;;;;;;;;16.90;99.90;;;;;;4976870;28;19910;-79
2022/06/30 07:19:43;;;;;;;;;;;16.70;99.90;;;;;;4976845;28;19911;-80
2022/06/30 07:22:08;;;;;;;;;;;16.80;99.90;;;;;;4977354;28;20368;-79
2022/06/30 07:24:34;;;;;;;;;;;16.70;99.90;;;;;;4976787;28;19965;-80
2022/06/30 07:27:00;;;;;;;;;;;16.70;99.90;;;;;;4976697;28;20389;-78
2022/06/30 07:29:26;;;;;;;;;;;16.90;99.90;;;;;;4976775;28;19917;-79
2022/06/30 07:31:53;;;;;;;;;;;16.80;99.90;;;;;;4976861;28;20000;-78
2022/06/30 07:34:18;;;;;;;;;;;16.60;99.90;;;;;;4975734;28;19910;-78
2022/06/30 07:36:44;;;;;;;;;;;16.80;99.90;;;;;;4976536;28;20306;-79
2022/06/30 07:39:09;;;;;;;;;;;17.10;99.90;;;;;;4976348;28;19914;-78
2022/06/30 07:41:35;;;;;;;;;;;17.50;99.90;;;;;;4976528;28;20013;-79
2022/06/30 07:44:01;;;;;;;;;;;17.70;99.90;;;;;;4959084;28;19910;-80
2022/06/30 07:46:27;;;;;;;;;;;18.00;99.90;;;;;;4976360;28;19917;-77
2022/06/30 07:48:53;;;;;;;;;;;19.40;99.90;;;;;;4976138;28;19914;-79
2022/06/30 07:51:20;;;;;;;;;;;22.60;99.90;;;;;;4976276;28;19922;-79
2022/06/30 07:53:46;;;;;;;;;;;23.70;99.90;;;;;;4976304;28;20442;-79
2022/06/30 07:56:11;;;;;;;;;;;22.10;99.90;;;;;;4976157;28;19953;-80
2022/06/30 07:58:37;;;;;;;;;;;20.80;99.90;;;;;;4976143;28;19914;-79
2022/06/30 08:01:02;;;;;;;;;;;21.40;99.90;;;;;;4976093;28;20437;-80
2022/06/30 08:03:28;;;;;;;;;;;21.00;99.90;;;;;;4976214;28;19933;-79
2022/06/30 08:05:54;;;;;;;;;;;20.10;99.90;;;;;;4975976;28;20277;-80
2022/06/30 08:08:20;;;;;;;;;;;19.70;99.90;;;;;;4976335;28;19922;-78
2022/06/30 08:10:45;;;;;;;;;;;19.60;99.90;;;;;;4975908;28;19917;-79
2022/06/30 08:13:11;;;;;;;;;;;19.80;99.90;;;;;;4976161;28;19911;-78
2022/06/30 08:15:37;;;;;;;;;;;19.90;99.90;;;;;;4975865;28;19922;-78
2022/06/30 08:18:03;;;;;;;;;;;19.60;99.90;;;;;;4975854;28;20013;-79
2022/06/30 08:20:29;;;;;;;;;;;19.40;99.90;;;;;;4975720;28;19911;-78
2022/06/30 08:22:54;;;;;;;;;;;19.50;99.90;;;;;;4975542;28;19917;-79
2022/06/30 08:25:20;;;;;;;;;;;19.60;99.90;;;;;;4975641;28;19925;-80
2022/06/30 08:27:45;;;;;;;;;;;20.00;99.90;;;;;;4975671;28;19914;-79
2022/06/30 08:30:11;;;;;;;;;;;20.10;99.90;;;;;;4975461;28;19973;-79
2022/06/30 08:32:37;;;;;;;;;;;20.60;99.90;;;;;;4975482;28;19910;-79
2022/06/30 08:35:02;;;;;;;;;;;20.80;99.90;;;;;;4975670;28;19950;-78
2022/06/30 08:37:29;;;;;;;;;;;20.80;99.90;;;;;;4975404;28;19910;-79
2022/06/30 08:42:40;;;;;;;;;;;20.00;99.90;;;;;;4975388;28;20330;-80
2022/06/30 08:45:17;;;;;;;;;;;20.60;99.90;;;;;;4975716;28;19910;-80
2022/06/30 08:47:46;;;;;;;;;;;20.40;99.90;;;;;;4975238;28;19914;-78
2022/06/30 08:50:13;;;;;;;;;;;20.40;99.90;;;;;;4975034;28;19918;-80
2022/06/30 08:52:53;;;;;;;;;;;20.30;99.90;;;;;;4975159;28;19925;-79
2022/06/30 08:55:24;;;;;;;;;;;20.00;99.90;;;;;;4975157;28;20287;-79
2022/06/30 08:57:50;;;;;;;;;;;19.50;99.90;;;;;;4975358;28;19964;-79
2022/06/30 09:00:17;;;;;;;;;;;19.30;99.90;;;;;;4975224;28;20352;-78
2022/06/30 09:02:43;;;;;;;;;;;19.40;99.90;;;;;;4975098;28;19910;-80
2022/06/30 09:05:09;;;;;;;;;;;19.50;99.90;;;;;;4975019;28;20291;-79
2022/06/30 09:07:35;;;;;;;;;;;19.50;99.90;;;;;;4975074;28;19918;-80
2022/06/30 09:10:05;;;;;;;;;;;19.50;99.90;;;;;;4973788;28;19965;-78
2022/06/30 09:12:31;;;;;;;;;;;19.90;99.90;;;;;;4975292;28;19910;-80
2022/06/30 09:14:57;;;;;;;;;;;20.20;99.90;;;;;;4975171;28;19910;-80
2022/06/30 09:17:23;;;;;;;;;;;20.00;99.90;;;;;;4975171;28;20370;-79
2022/06/30 09:19:52;;;;;;;;;;;20.00;99.90;;;;;;4974933;28;19921;-79
2022/06/30 09:22:18;;;;;;;;;;;19.90;99.90;;;;;;4974920;28;19914;-79
2022/06/30 09:24:44;;;;;;;;;;;20.10;99.90;;;;;;4974851;28;19972;-79
2022/06/30 09:27:19;;;;;;;;;;;20.10;99.90;;;;;;4974932;28;19925;-78
2022/06/30 09:29:46;;;;;;;;;;;20.40;99.90;;;;;;4974719;28;19914;-78
2022/06/30 09:32:12;;;;;;;;;;;20.80;99.90;;;;;;4974801;28;19914;-80
2022/06/30 09:34:38;;;;;;;;;;;21.50;99.90;;;;;;4974763;28;20422;-79
2022/06/30 09:37:13;;;;;;;;;;;21.90;99.50;;;;;;4974820;28;19917;-79
2022/06/30 09:39:43;;;;;;;;;;;22.10;99.90;;;;;;4974801;28;19923;-78
2022/06/30 09:42:09;;;;;;;;;;;22.60;99.20;;;;;;4974722;28;19911;-79
2022/06/30 09:44:35;;;;;;;;;;;23.60;95.80;;;;;;4974711;28;19916;-80
2022/06/30 09:47:03;;;;;;;;;;;24.00;92.00;;;;;;4974665;28;19922;-79
2022/06/30 09:49:29;;;;;;;;;;;24.70;88.90;;;;;;4974658;28;20018;-80
2022/06/30 09:51:54;;;;;;;;;;;25.70;88.30;;;;;;4973987;28;19954;-78
2022/06/30 09:54:21;;;;;;;;;;;25.80;86.00;;;;;;4974568;28;19944;-79
2022/06/30 09:57:04;;;;;;;;;;;25.80;79.10;;;;;;4975268;28;20434;-79
2022/06/30 09:59:30;;;;;;;;;;;26.00;75.60;;;;;;4978410;28;19914;-79
2022/06/30 10:01:56;;;;;;;;;;;26.40;75.20;;;;;;4978234;28;19917;-79
2022/06/30 10:04:21;;;;;;;;;;;25.00;73.20;;;;;;4978149;28;19910;-79
2022/06/30 10:06:47;;;;;;;;;;;23.60;78.50;;;;;;4978095;28;19910;-79
2022/06/30 10:09:17;;;;;;;;;;;23.00;86.10;;;;;;4978323;28;19914;-79
2022/06/30 10:11:43;;;;;;;;;;;23.00;85.80;;;;;;4978123;28;19917;-80
2022/06/30 10:14:10;;;;;;;;;;;22.30;86.80;;;;;;4978105;28;19992;-80
2022/06/30 10:16:38;;;;;;;;;;;22.30;85.80;;;;;;4978425;28;19914;-80
2022/06/30 10:19:03;;;;;;;;;;;23.20;84.60;;;;;;4978267;28;19910;-80
2022/06/30 10:21:29;;;;;;;;;;;23.30;76.50;;;;;;4977900;28;19914;-78
2022/06/30 10:23:55;;;;;;;;;;;22.30;80.40;;;;;;4977881;28;20279;-79
2022/06/30 10:29:05;;;;;;;;;;;22.10;88.10;;;;;;4977889;28;20023;-81
2022/06/30 10:31:34;;;;;;;;;;;24.40;80.00;;;;;;4977735;28;19910;-78
2022/06/30 10:34:14;;;;;;;;;;;25.90;73.90;;;;;;4978203;28;20005;-78
2022/06/30 10:36:44;;;;;;;;;;;27.30;67.10;;;;;;4977821;28;19921;-80
2022/06/30 10:39:24;;;;;;;;;;;25.60;64.30;;;;;;4977492;28;19914;-80
2022/06/30 10:41:51;;;;;;;;;;;23.70;67.10;;;;;;4977785;28;19914;-79
2022/06/30 10:44:22;;;;;;;;;;;24.00;71.80;;;;;;4977494;28;19910;-80
2022/06/30 10:46:47;;;;;;;;;;;25.60;67.10;;;;;;4977191;28;20431;-79
2022/06/30 10:49:15;;;;;;;;;;;26.60;61.80;;;;;;4977414;28;20005;-79
2022/06/30 10:51:42;;;;;;;;;;;26.30;61.00;;;;;;4977155;28;19988;-79
2022/06/30 10:54:08;;;;;;;;;;;27.10;61.80;;;;;;4977754;28;19910;-80
2022/06/30 10:56:49;;;;;;;;;;;27.70;59.60;;;;;;4959916;28;19960;-79
2022/06/30 10:59:15;;;;;;;;;;;27.50;57.20;;;;;;4977314;28;20371;-80
2022/06/30 11:02:03;;;;;;;;;;;28.80;59.00;;;;;;4977216;28;19911;-79
2022/06/30 11:04:29;;;;;;;;;;;28.90;55.60;;;;;;4971641;28;20387;-81
2022/06/30 11:07:00;;;;;;;;;;;28.00;56.20;;;;;;4977220;28;19993;-79
2022/06/30 11:09:44;;;;;;;;;;;26.20;56.20;;;;;;4975845;28;19917;-79
2022/06/30 11:12:10;;;;;;;;;;;26.30;57.40;;;;;;4977010;28;20255;-78
2022/06/30 11:14:36;;;;;;;;;;;26.20;58.50;;;;;;4977051;28;20001;-79
2022/06/30 11:17:12;;;;;;;;;;;26.90;55.10;;;;;;4976973;28;19942;-79
2022/06/30 11:19:38;;;;;;;;;;;25.80;55.60;;;;;;4977308;28;20426;-79
2022/06/30 11:22:04;;;;;;;;;;;26.00;58.10;;;;;;4976844;28;19960;-80
2022/06/30 11:24:30;;;;;;;;;;;25.80;56.80;;;;;;4976854;28;20032;-80
2022/06/30 11:29:40;;;;;;;;;;;25.30;58.10;;;;;;4976458;28;19917;-79
2022/06/30 11:32:06;;;;;;;;;;;24.80;59.50;;;;;;4976842;28;20327;-79
2022/06/30 11:34:36;;;;;;;;;;;24.40;58.70;;;;;;4976505;28;19944;-80
2022/06/30 11:37:01;;;;;;;;;;;23.60;61.30;;;;;;4976608;28;20374;-78
2022/06/30 11:39:28;;;;;;;;;;;22.90;63.20;;;;;;4976482;28;19916;-78
2022/06/30 11:42:06;;;;;;;;;;;22.70;65.30;;;;;;4976451;28;19911;-80
2022/06/30 11:44:34;;;;;;;;;;;22.30;63.80;;;;;;4976466;28;19910;-79
2022/06/30 11:47:01;;;;;;;;;;;22.20;66.20;;;;;;4976151;28;19914;-78
2022/06/30 11:49:42;;;;;;;;;;;21.80;69.90;;;;;;4976341;28;19910;-78
2022/06/30 11:52:15;;;;;;;;;;;21.60;67.60;;;;;;4976380;28;20367;-79
2022/06/30 11:54:47;;;;;;;;;;;21.60;67.20;;;;;;4958819;28;20271;-79
2022/06/30 11:57:12;;;;;;;;;;;21.50;68.00;;;;;;4976113;28;19910;-79
2022/06/30 11:59:48;;;;;;;;;;;21.90;67.60;;;;;;4976126;28;19937;-79
2022/06/30 12:02:14;;;;;;;;;;;22.20;66.60;;;;;;4976254;28;20060;-78
2022/06/30 12:04:43;;;;;;;;;;;22.60;66.10;;;;;;4976088;28;19918;-79
2022/06/30 12:07:10;;;;;;;;;;;23.90;64.50;;;;;;4975898;28;19925;-80
2022/06/30 12:09:35;;;;;;;;;;;26.10;61.30;;;;;;4975956;28;20002;-80
2022/06/30 12:12:03;;;;;;;;;;;26.80;57.90;;;;;;4975911;28;19997;-80
2022/06/30 12:14:39;;;;;;;;;;;25.10;58.90;;;;;;4975886;28;20452;-78
2022/06/30 12:17:06;;;;;;;;;;;23.10;64.10;;;;;;4975971;28;19996;-78
2022/06/30 12:19:35;;;;;;;;;;;21.70;71.70;;;;;;4975425;28;20330;-78
2022/06/30 12:22:03;;;;;;;;;;;21.20;78.80;;;;;;4975729;28;19910;-79
2022/06/30 12:24:29;;;;;;;;;;;20.70;84.60;;;;;;4975999;28;19910;-80
2022/06/30 12:26:55;;;;;;;;;;;21.10;86.60;;;;;;4975686;28;19917;-80
2022/06/30 12:29:22;;;;;;;;;;;21.10;87.00;;;;;;4975453;28;19910;-79
2022/06/30 12:32:01;;;;;;;;;;;21.50;89.60;;;;;;4975493;28;19917;-80
2022/06/30 12:34:27;;;;;;;;;;;20.90;90.40;;;;;;4975671;28;19910;-80
2022/06/30 12:36:56;;;;;;;;;;;20.40;92.10;;;;;;4975434;28;20371;-79
2022/06/30 12:39:22;;;;;;;;;;;19.90;94.70;;;;;;4958066;28;20260;-79
2022/06/30 12:41:48;;;;;;;;;;;19.60;98.10;;;;;;4975401;28;19917;-79
2022/06/30 12:44:14;;;;;;;;;;;19.60;99.90;;;;;;4975348;28;19937;-80
2022/06/30 12:46:40;;;;;;;;;;;19.70;99.90;;;;;;4975188;28;20298;-78
2022/06/30 12:49:18;;;;;;;;;;;20.00;99.90;;;;;;4975213;28;19961;-80
2022/06/30 12:51:43;;;;;;;;;;;20.50;99.90;;;;;;4974949;28;20399;-80
2022/06/30 12:54:11;;;;;;;;;;;20.90;99.90;;;;;;4975064;28;19910;-79
2022/06/30 12:56:37;;;;;;;;;;;21.90;99.00;;;;;;4975536;28;19914;-79
2022/06/30 12:59:04;;;;;;;;;;;22.90;98.10;;;;;;4975148;28;19914;-79
2022/06/30 13:01:36;;;;;;;;;;;24.10;94.80;;;;;;4975284;28;19966;-80
2022/06/30 13:04:03;;;;;;;;;;;24.80;92.60;;;;;;4975075;28;19960;-80
2022/06/30 13:06:33;;;;;;;;;;;24.10;91.20;;;;;;4975255;28;20327;-80
2022/06/30 13:09:03;;;;;;;;;;;23.20;93.50;;;;;;4974957;28;20026;-78
2022/06/30 13:11:28;;;;;;;;;;;22.40;95.50;;;;;;4975482;28;19910;-79
2022/06/30 13:13:58;;;;;;;;;;;22.80;95.70;;;;;;4974902;28;19914;-79
2022/06/30 13:16:24;;;;;;;;;;;23.80;93.30;;;;;;4974949;28;19914;-79
2022/06/30 13:18:49;;;;;;;;;;;26.30;91.00;;;;;;4974946;28;20387;-79
2022/06/30 13:21:16;;;;;;;;;;;29.00;78.30;;;;;;4975116;28;20402;-80
2022/06/30 13:23:42;;;;;;;;;;;30.40;70.10;;;;;;4974865;28;19911;-79
2022/06/30 13:26:08;;;;;;;;;;;30.80;66.10;;;;;;4974885;28;19917;-80
2022/06/30 13:28:33;;;;;;;;;;;31.60;64.90;;;;;;4974816;28;19914;-79
2022/06/30 13:30:59;;;;;;;;;;;30.60;57.90;;;;;;4975052;28;20272;-80
2022/06/30 13:33:25;;;;;;;;;;;30.00;59.90;;;;;;4978523;28;19985;-78
2022/06/30 13:35:50;;;;;;;;;;;29.20;60.20;;;;;;4978677;28;19949;-80
2022/06/30 13:38:16;;;;;;;;;;;28.30;59.20;;;;;;4978730;28;20387;-81
2022/06/30 13:40:42;;;;;;;;;;;28.60;58.60;;;;;;4978643;28;19910;-80
2022/06/30 13:43:07;;;;;;;;;;;27.10;60.20;;;;;;4979055;28;19997;-79
2022/06/30 13:45:33;;;;;;;;;;;28.40;61.30;;;;;;4978573;28;19917;-79
2022/06/30 13:47:58;;;;;;;;;;;29.00;58.70;;;;;;4978348;28;20293;-80
2022/06/30 13:50:24;;;;;;;;;;;29.70;59.20;;;;;;4978454;28;19922;-81
2022/06/30 13:52:49;;;;;;;;;;;30.60;56.90;;;;;;4978525;28;19964;-80
2022/06/30 13:55:15;;;;;;;;;;;30.80;55.70;;;;;;4978439;28;20413;-80
2022/06/30 13:57:40;;;;;;;;;;;31.00;58.20;;;;;;4978411;28;19910;-80
2022/06/30 14:00:06;;;;;;;;;;;32.30;58.00;;;;;;4978449;28;20383;-80
2022/06/30 14:02:32;;;;;;;;;;;32.10;55.60;;;;;;4978282;28;20343;-80
2022/06/30 14:04:59;;;;;;;;;;;31.70;53.50;;;;;;4978259;28;19910;-78
2022/06/30 14:07:26;;;;;;;;;;;31.40;53.60;;;;;;4978230;28;19910;-79
2022/06/30 14:09:52;;;;;;;;;;;31.10;52.20;;;;;;4978173;28;20013;-79
2022/06/30 14:12:18;;;;;;;;;;;29.70;54.20;;;;;;4978260;28;19910;-80
2022/06/30 14:14:44;;;;;;;;;;;30.10;53.60;;;;;;4978352;28;19910;-79
2022/06/30 14:17:09;;;;;;;;;;;31.70;53.40;;;;;;4977972;28;20386;-81
2022/06/30 14:19:35;;;;;;;;;;;32.80;48.50;;;;;;4978281;28;19939;-80
2022/06/30 14:22:00;;;;;;;;;;;30.30;48.90;;;;;;4977928;28;20001;-80
2022/06/30 14:24:26;;;;;;;;;;;28.30;52.20;;;;;;4978078;28;19910;-80
2022/06/30 14:26:52;;;;;;;;;;;29.80;51.90;;;;;;4977874;28;19910;-80
2022/06/30 14:29:18;;;;;;;;;;;31.00;48.80;;;;;;4977836;28;19910;-81
2022/06/30 14:31:43;;;;;;;;;;;30.60;47.50;;;;;;4977863;28;19910;-80
2022/06/30 14:34:10;;;;;;;;;;;30.60;47.60;;;;;;4977828;28;19911;-79
2022/06/30 14:36:36;;;;;;;;;;;30.20;47.90;;;;;;4977650;28;19915;-79